sensor_id;sensor_type;location;lat;lon;timestamp;temperature;humidity
36660;DHT22;22654;51.054;3.654;2022-08-01T00:01:40;20.50;99.90
36660;DHT22;22654;51.054;3.654;2022-08-01T00:04:06;20.60;99.90
36660;DHT22;22654;51.054;3.654;2022-08-01T00:06:32;20.50;99.90
36660;DHT22;22654;51.054;3.654;2022-08-01T00:08:57;20.60;99.90
36660;DHT22;22654;51.054;3.654;2022-08-01T00:11:23;20.60;99.90
36660;DHT22;22654;51.054;3.654;2022-08-01T00:13:49;20.60;99.90
36660;DHT22;22654;51.054;3.654;2022-08-01T00:16:15;20.60;99.90
36660;DHT22;22654;51.054;3.654;2022-08-01T00:18:41;20.60;99.90
36660;DHT22;22654;51.054;3.654;2022-08-01T00:21:07;20.50;99.90
36660;DHT22;22654;51.054;3.654;2022-08-01T00:23:33;20.50;99.90
36660;DHT22;22654;51.054;3.654;2022-08-01T00:25:59;20.40;99.90
36660;DHT22;22654;51.054;3.654;2022-08-01T00:28:25;20.40;99.90
36660;DHT22;22654;51.054;3.654;2022-08-01T00:30:50;20.50;99.90
36660;DHT22;22654;51.054;3.654;2022-08-01T00:33:16;20.40;99.90
36660;DHT22;22654;51.054;3.654;2022-08-01T00:35:42;20.30;99.90
36660;DHT22;22654;51.054;3.654;2022-08-01T00:38:08;20.40;99.90
36660;DHT22;22654;51.054;3.654;2022-08-01T00:40:34;20.30;99.90
36660;DHT22;22654;51.054;3.654;2022-08-01T00:43:00;20.30;99.90
36660;DHT22;22654;51.054;3.654;2022-08-01T00:45:26;20.20;99.90
36660;DHT22;22654;51.054;3.654;2022-08-01T00:47:52;20.30;99.90
36660;DHT22;22654;51.054;3.654;2022-08-01T00:50:18;20.20;99.90
36660;DHT22;22654;51.054;3.654;2022-08-01T00:52:44;20.20;99.90
36660;DHT22;22654;51.054;3.654;2022-08-01T00:55:12;20.10;99.90
36660;DHT22;22654;51.054;3.654;2022-08-01T00:57:39;20.10;99.90
36660;DHT22;22654;51.054;3.654;2022-08-01T01:00:06;20.10;99.90
36660;DHT22;22654;51.054;3.654;2022-08-01T01:02:33;20.10;99.90
36660;DHT22;22654;51.054;3.654;2022-08-01T01:05:00;20.20;99.90
36660;DHT22;22654;51.054;3.654;2022-08-01T01:07:50;20.10;99.90
36660;DHT22;22654;51.054;3.654;2022-08-01T01:16:27;20.00;99.90
36660;DHT22;22654;51.054;3.654;2022-08-01T01:18:47;19.90;99.90
36660;DHT22;22654;51.054;3.654;2022-08-01T01:27:05;20.10;99.90
36660;DHT22;22654;51.054;3.654;2022-08-01T01:32:13;20.20;99.90
36660;DHT22;22654;51.054;3.654;2022-08-01T01:34:43;20.40;99.90
36660;DHT22;22654;51.054;3.654;2022-08-01T01:37:14;20.20;99.90
36660;DHT22;22654;51.054;3.654;2022-08-01T01:39:41;20.10;99.90
36660;DHT22;22654;51.054;3.654;2022-08-01T01:42:08;20.20;99.90
36660;DHT22;22654;51.054;3.654;2022-08-01T01:44:37;20.40;99.90
36660;DHT22;22654;51.054;3.654;2022-08-01T01:47:04;20.30;99.90
36660;DHT22;22654;51.054;3.654;2022-08-01T01:49:32;20.00;99.90
36660;DHT22;22654;51.054;3.654;2022-08-01T01:51:59;19.90;99.90
36660;DHT22;22654;51.054;3.654;2022-08-01T01:54:31;19.70;99.90
36660;DHT22;22654;51.054;3.654;2022-08-01T01:56:59;19.50;99.90
36660;DHT22;22654;51.054;3.654;2022-08-01T01:59:30;19.30;99.90
36660;DHT22;22654;51.054;3.654;2022-08-01T02:02:01;19.20;99.90
36660;DHT22;22654;51.054;3.654;2022-08-01T02:04:28;19.10;99.90
36660;DHT22;22654;51.054;3.654;2022-08-01T02:06:55;19.20;99.90
36660;DHT22;22654;51.054;3.654;2022-08-01T02:09:23;19.10;99.90
36660;DHT22;22654;51.054;3.654;2022-08-01T02:11:50;19.20;99.90
36660;DHT22;22654;51.054;3.654;2022-08-01T02:14:18;19.30;99.90
36660;DHT22;22654;51.054;3.654;2022-08-01T02:16:48;19.30;99.90
36660;DHT22;22654;51.054;3.654;2022-08-01T02:19:17;19.30;99.90
36660;DHT22;22654;51.054;3.654;2022-08-01T02:26:50;19.50;99.90
36660;DHT22;22654;51.054;3.654;2022-08-01T02:29:24;19.50;99.90
36660;DHT22;22654;51.054;3.654;2022-08-01T02:31:54;19.70;99.90
36660;DHT22;22654;51.054;3.654;2022-08-01T02:34:21;19.70;99.90
36660;DHT22;22654;51.054;3.654;2022-08-01T02:36:48;19.80;99.90
36660;DHT22;22654;51.054;3.654;2022-08-01T02:39:17;19.70;99.90
36660;DHT22;22654;51.054;3.654;2022-08-01T02:41:48;19.70;99.90
36660;DHT22;22654;51.054;3.654;2022-08-01T02:44:23;19.60;99.90
36660;DHT22;22654;51.054;3.654;2022-08-01T02:46:57;19.60;99.90
36660;DHT22;22654;51.054;3.654;2022-08-01T02:49:33;19.80;99.90
36660;DHT22;22654;51.054;3.654;2022-08-01T02:52:02;19.90;99.90
36660;DHT22;22654;51.054;3.654;2022-08-01T02:54:30;20.10;99.90
36660;DHT22;22654;51.054;3.654;2022-08-01T02:56:58;20.20;99.90
36660;DHT22;22654;51.054;3.654;2022-08-01T02:59:28;20.10;99.90
36660;DHT22;22654;51.054;3.654;2022-08-01T03:01:56;20.00;99.90
36660;DHT22;22654;51.054;3.654;2022-08-01T03:04:24;19.90;99.90
36660;DHT22;22654;51.054;3.654;2022-08-01T03:06:54;20.00;99.90
36660;DHT22;22654;51.054;3.654;2022-08-01T03:09:26;19.90;99.90
36660;DHT22;22654;51.054;3.654;2022-08-01T03:11:52;19.90;99.90
36660;DHT22;22654;51.054;3.654;2022-08-01T03:14:20;19.90;99.90
36660;DHT22;22654;51.054;3.654;2022-08-01T03:16:48;19.80;99.90
36660;DHT22;22654;51.054;3.654;2022-08-01T03:19:18;19.70;99.90
36660;DHT22;22654;51.054;3.654;2022-08-01T03:21:45;19.60;99.90
36660;DHT22;22654;51.054;3.654;2022-08-01T03:24:13;19.60;99.90
36660;DHT22;22654;51.054;3.654;2022-08-01T03:26:40;19.70;99.90
36660;DHT22;22654;51.054;3.654;2022-08-01T03:29:12;19.80;99.90
36660;DHT22;22654;51.054;3.654;2022-08-01T03:31:40;19.70;99.90
36660;DHT22;22654;51.054;3.654;2022-08-01T03:34:09;19.60;99.90
36660;DHT22;22654;51.054;3.654;2022-08-01T03:36:41;19.50;99.90
36660;DHT22;22654;51.054;3.654;2022-08-01T03:39:10;19.80;99.90
36660;DHT22;22654;51.054;3.654;2022-08-01T03:41:40;19.90;99.90
36660;DHT22;22654;51.054;3.654;2022-08-01T03:44:20;19.80;99.90
36660;DHT22;22654;51.054;3.654;2022-08-01T03:46:49;19.90;99.90
36660;DHT22;22654;51.054;3.654;2022-08-01T03:52:06;19.70;99.90
36660;DHT22;22654;51.054;3.654;2022-08-01T03:54:36;19.80;99.90
36660;DHT22;22654;51.054;3.654;2022-08-01T03:57:02;20.00;99.90
36660;DHT22;22654;51.054;3.654;2022-08-01T03:59:30;20.00;99.90
36660;DHT22;22654;51.054;3.654;2022-08-01T04:01:57;19.90;99.90
36660;DHT22;22654;51.054;3.654;2022-08-01T04:04:24;19.80;99.90
36660;DHT22;22654;51.054;3.654;2022-08-01T04:06:50;19.90;99.90
36660;DHT22;22654;51.054;3.654;2022-08-01T04:09:20;20.00;99.90
36660;DHT22;22654;51.054;3.654;2022-08-01T04:11:46;20.00;99.90
36660;DHT22;22654;51.054;3.654;2022-08-01T04:14:12;20.00;99.90
36660;DHT22;22654;51.054;3.654;2022-08-01T04:16:38;19.90;99.90
36660;DHT22;22654;51.054;3.654;2022-08-01T04:19:05;19.80;99.90
36660;DHT22;22654;51.054;3.654;2022-08-01T04:21:34;19.80;99.90
36660;DHT22;22654;51.054;3.654;2022-08-01T04:24:10;19.80;99.90
36660;DHT22;22654;51.054;3.654;2022-08-01T04:26:38;19.80;99.90
36660;DHT22;22654;51.054;3.654;2022-08-01T04:29:05;19.60;99.90
36660;DHT22;22654;51.054;3.654;2022-08-01T04:31:33;19.40;99.90
36660;DHT22;22654;51.054;3.654;2022-08-01T04:34:02;19.20;99.90
36660;DHT22;22654;51.054;3.654;2022-08-01T04:36:28;19.10;99.90
36660;DHT22;22654;51.054;3.654;2022-08-01T04:38:59;19.10;99.90
36660;DHT22;22654;51.054;3.654;2022-08-01T04:41:26;19.20;99.90
36660;DHT22;22654;51.054;3.654;2022-08-01T04:43:52;19.30;99.90
36660;DHT22;22654;51.054;3.654;2022-08-01T04:46:20;19.30;99.90
36660;DHT22;22654;51.054;3.654;2022-08-01T04:48:47;19.40;99.90
36660;DHT22;22654;51.054;3.654;2022-08-01T04:51:15;19.50;99.90
36660;DHT22;22654;51.054;3.654;2022-08-01T04:53:41;19.40;99.90
36660;DHT22;22654;51.054;3.654;2022-08-01T04:56:07;19.40;99.90
36660;DHT22;22654;51.054;3.654;2022-08-01T04:58:33;19.20;99.90
36660;DHT22;22654;51.054;3.654;2022-08-01T05:00:59;19.20;99.90
36660;DHT22;22654;51.054;3.654;2022-08-01T05:03:25;19.10;99.90
36660;DHT22;22654;51.054;3.654;2022-08-01T05:05:51;19.10;99.90
36660;DHT22;22654;51.054;3.654;2022-08-01T05:08:16;19.30;99.90
36660;DHT22;22654;51.054;3.654;2022-08-01T05:10:42;19.50;99.90
36660;DHT22;22654;51.054;3.654;2022-08-01T05:13:08;19.70;99.90
36660;DHT22;22654;51.054;3.654;2022-08-01T05:15:35;19.90;99.90
36660;DHT22;22654;51.054;3.654;2022-08-01T05:18:04;20.10;99.90
36660;DHT22;22654;51.054;3.654;2022-08-01T05:20:30;20.00;99.90
36660;DHT22;22654;51.054;3.654;2022-08-01T05:22:56;19.90;99.90
36660;DHT22;22654;51.054;3.654;2022-08-01T05:25:22;19.80;99.90
36660;DHT22;22654;51.054;3.654;2022-08-01T05:27:49;19.90;99.90
36660;DHT22;22654;51.054;3.654;2022-08-01T05:30:15;19.90;99.90
36660;DHT22;22654;51.054;3.654;2022-08-01T05:32:41;20.00;99.90
36660;DHT22;22654;51.054;3.654;2022-08-01T05:35:08;20.00;99.90
36660;DHT22;22654;51.054;3.654;2022-08-01T05:37:34;20.20;99.90
36660;DHT22;22654;51.054;3.654;2022-08-01T05:40:00;20.30;99.90
36660;DHT22;22654;51.054;3.654;2022-08-01T05:42:26;20.50;99.90
36660;DHT22;22654;51.054;3.654;2022-08-01T05:44:52;20.70;99.90
36660;DHT22;22654;51.054;3.654;2022-08-01T05:47:18;20.80;99.90
36660;DHT22;22654;51.054;3.654;2022-08-01T05:49:45;20.90;99.90
36660;DHT22;22654;51.054;3.654;2022-08-01T05:52:11;20.80;99.90
36660;DHT22;22654;51.054;3.654;2022-08-01T05:54:37;21.10;99.90
36660;DHT22;22654;51.054;3.654;2022-08-01T05:57:03;21.50;99.90
36660;DHT22;22654;51.054;3.654;2022-08-01T05:59:30;22.00;99.90
36660;DHT22;22654;51.054;3.654;2022-08-01T06:01:56;22.60;99.90
36660;DHT22;22654;51.054;3.654;2022-08-01T06:04:22;22.60;99.90
36660;DHT22;22654;51.054;3.654;2022-08-01T06:06:48;22.70;99.90
36660;DHT22;22654;51.054;3.654;2022-08-01T06:09:13;22.60;99.90
36660;DHT22;22654;51.054;3.654;2022-08-01T06:11:39;22.60;99.90
36660;DHT22;22654;51.054;3.654;2022-08-01T06:14:05;22.50;99.90
36660;DHT22;22654;51.054;3.654;2022-08-01T06:16:32;22.50;99.90
36660;DHT22;22654;51.054;3.654;2022-08-01T06:18:58;22.60;99.90
36660;DHT22;22654;51.054;3.654;2022-08-01T06:21:23;22.50;99.90
36660;DHT22;22654;51.054;3.654;2022-08-01T06:23:49;22.40;99.90
36660;DHT22;22654;51.054;3.654;2022-08-01T06:26:18;22.30;99.90
36660;DHT22;22654;51.054;3.654;2022-08-01T06:28:44;22.30;99.90
36660;DHT22;22654;51.054;3.654;2022-08-01T06:31:09;22.00;99.90
36660;DHT22;22654;51.054;3.654;2022-08-01T06:33:37;21.70;99.90
36660;DHT22;22654;51.054;3.654;2022-08-01T06:36:03;21.50;99.90
36660;DHT22;22654;51.054;3.654;2022-08-01T06:38:29;21.40;99.90
36660;DHT22;22654;51.054;3.654;2022-08-01T06:40:55;21.30;99.90
36660;DHT22;22654;51.054;3.654;2022-08-01T06:43:21;21.30;99.90
36660;DHT22;22654;51.054;3.654;2022-08-01T06:45:47;21.00;99.90
36660;DHT22;22654;51.054;3.654;2022-08-01T06:48:13;21.20;99.90
36660;DHT22;22654;51.054;3.654;2022-08-01T06:50:39;21.30;99.90
36660;DHT22;22654;51.054;3.654;2022-08-01T06:53:05;21.60;99.90
36660;DHT22;22654;51.054;3.654;2022-08-01T06:55:31;21.70;99.90
36660;DHT22;22654;51.054;3.654;2022-08-01T06:57:56;21.90;99.90
36660;DHT22;22654;51.054;3.654;2022-08-01T07:00:24;22.00;99.90
36660;DHT22;22654;51.054;3.654;2022-08-01T07:02:52;22.30;99.90
36660;DHT22;22654;51.054;3.654;2022-08-01T07:05:19;22.50;99.90
36660;DHT22;22654;51.054;3.654;2022-08-01T07:07:45;22.70;99.90
36660;DHT22;22654;51.054;3.654;2022-08-01T07:10:12;22.80;99.90
36660;DHT22;22654;51.054;3.654;2022-08-01T07:12:38;22.90;99.90
36660;DHT22;22654;51.054;3.654;2022-08-01T07:15:05;22.90;99.90
36660;DHT22;22654;51.054;3.654;2022-08-01T07:17:31;22.60;99.90
36660;DHT22;22654;51.054;3.654;2022-08-01T07:19:57;22.80;99.90
36660;DHT22;22654;51.054;3.654;2022-08-01T07:22:23;22.80;99.90
36660;DHT22;22654;51.054;3.654;2022-08-01T07:24:49;22.50;99.90
36660;DHT22;22654;51.054;3.654;2022-08-01T07:27:15;22.20;99.90
36660;DHT22;22654;51.054;3.654;2022-08-01T07:29:40;22.20;99.90
36660;DHT22;22654;51.054;3.654;2022-08-01T07:32:06;22.30;99.90
36660;DHT22;22654;51.054;3.654;2022-08-01T07:34:32;22.40;99.90
36660;DHT22;22654;51.054;3.654;2022-08-01T07:36:58;22.70;99.90
36660;DHT22;22654;51.054;3.654;2022-08-01T07:39:24;23.00;99.90
36660;DHT22;22654;51.054;3.654;2022-08-01T07:41:49;23.20;99.90
36660;DHT22;22654;51.054;3.654;2022-08-01T07:44:15;23.30;99.90
36660;DHT22;22654;51.054;3.654;2022-08-01T07:46:41;23.40;99.90
36660;DHT22;22654;51.054;3.654;2022-08-01T07:49:07;23.70;99.90
36660;DHT22;22654;51.054;3.654;2022-08-01T07:51:33;23.70;99.90
36660;DHT22;22654;51.054;3.654;2022-08-01T07:53:59;23.40;99.90
36660;DHT22;22654;51.054;3.654;2022-08-01T07:56:25;23.30;99.90
36660;DHT22;22654;51.054;3.654;2022-08-01T07:58:53;23.90;99.90
36660;DHT22;22654;51.054;3.654;2022-08-01T08:01:18;25.70;99.90
36660;DHT22;22654;51.054;3.654;2022-08-01T08:03:45;27.30;99.90
36660;DHT22;22654;51.054;3.654;2022-08-01T08:06:11;27.20;99.20
36660;DHT22;22654;51.054;3.654;2022-08-01T08:08:36;27.50;98.60
36660;DHT22;22654;51.054;3.654;2022-08-01T08:11:02;28.00;98.20
36660;DHT22;22654;51.054;3.654;2022-08-01T08:13:28;28.80;96.80
36660;DHT22;22654;51.054;3.654;2022-08-01T08:15:54;28.90;95.70
36660;DHT22;22654;51.054;3.654;2022-08-01T08:18:20;28.60;95.60
36660;DHT22;22654;51.054;3.654;2022-08-01T08:20:45;27.80;96.20
36660;DHT22;22654;51.054;3.654;2022-08-01T08:23:11;26.90;97.20
36660;DHT22;22654;51.054;3.654;2022-08-01T08:25:56;26.20;98.40
36660;DHT22;22654;51.054;3.654;2022-08-01T08:28:21;25.60;99.30
36660;DHT22;22654;51.054;3.654;2022-08-01T08:30:47;25.30;99.60
36660;DHT22;22654;51.054;3.654;2022-08-01T08:33:13;24.80;99.90
36660;DHT22;22654;51.054;3.654;2022-08-01T08:35:40;24.60;99.90
36660;DHT22;22654;51.054;3.654;2022-08-01T08:38:07;24.70;99.90
36660;DHT22;22654;51.054;3.654;2022-08-01T08:40:35;24.80;99.90
36660;DHT22;22654;51.054;3.654;2022-08-01T08:43:03;25.10;99.90
36660;DHT22;22654;51.054;3.654;2022-08-01T08:45:29;25.50;99.90
36660;DHT22;22654;51.054;3.654;2022-08-01T08:47:56;25.70;99.60
36660;DHT22;22654;51.054;3.654;2022-08-01T08:50:23;26.00;99.70
36660;DHT22;22654;51.054;3.654;2022-08-01T08:52:49;26.20;99.40
36660;DHT22;22654;51.054;3.654;2022-08-01T08:55:17;26.60;98.70
36660;DHT22;22654;51.054;3.654;2022-08-01T08:57:44;26.60;98.40
36660;DHT22;22654;51.054;3.654;2022-08-01T09:00:11;26.50;98.30
36660;DHT22;22654;51.054;3.654;2022-08-01T09:02:48;26.40;97.70
36660;DHT22;22654;51.054;3.654;2022-08-01T09:05:22;26.90;97.60
36660;DHT22;22654;51.054;3.654;2022-08-01T09:07:52;27.30;96.90
36660;DHT22;22654;51.054;3.654;2022-08-01T09:10:18;27.20;97.90
36660;DHT22;22654;51.054;3.654;2022-08-01T09:13:08;27.10;97.50
36660;DHT22;22654;51.054;3.654;2022-08-01T09:18:06;26.70;96.80
36660;DHT22;22654;51.054;3.654;2022-08-01T09:20:32;26.60;97.90
36660;DHT22;22654;51.054;3.654;2022-08-01T09:23:00;27.00;97.50
36660;DHT22;22654;51.054;3.654;2022-08-01T09:25:26;27.20;96.60
36660;DHT22;22654;51.054;3.654;2022-08-01T09:28:05;27.00;96.50
36660;DHT22;22654;51.054;3.654;2022-08-01T09:30:38;27.30;95.90
36660;DHT22;22654;51.054;3.654;2022-08-01T09:33:04;27.50;95.90
36660;DHT22;22654;51.054;3.654;2022-08-01T09:35:35;27.80;95.80
36660;DHT22;22654;51.054;3.654;2022-08-01T09:40:58;27.70;95.30
36660;DHT22;22654;51.054;3.654;2022-08-01T09:43:28;27.20;95.80
36660;DHT22;22654;51.054;3.654;2022-08-01T09:45:55;27.00;95.90
36660;DHT22;22654;51.054;3.654;2022-08-01T09:48:22;26.60;96.50
36660;DHT22;22654;51.054;3.654;2022-08-01T09:50:51;26.80;97.10
36660;DHT22;22654;51.054;3.654;2022-08-01T09:53:17;27.10;96.80
36660;DHT22;22654;51.054;3.654;2022-08-01T09:55:44;27.60;96.20
36660;DHT22;22654;51.054;3.654;2022-08-01T09:58:12;27.90;95.20
36660;DHT22;22654;51.054;3.654;2022-08-01T10:00:39;28.10;95.00
36660;DHT22;22654;51.054;3.654;2022-08-01T10:03:25;28.50;94.70
36660;DHT22;22654;51.054;3.654;2022-08-01T10:05:52;28.70;94.60
36660;DHT22;22654;51.054;3.654;2022-08-01T10:08:19;29.00;94.10
36660;DHT22;22654;51.054;3.654;2022-08-01T10:11:10;29.10;93.40
36660;DHT22;22654;51.054;3.654;2022-08-01T10:13:37;29.00;93.30
36660;DHT22;22654;51.054;3.654;2022-08-01T10:16:03;28.60;93.50
36660;DHT22;22654;51.054;3.654;2022-08-01T10:18:33;28.50;93.90
36660;DHT22;22654;51.054;3.654;2022-08-01T10:21:01;28.10;93.90
36660;DHT22;22654;51.054;3.654;2022-08-01T10:23:27;27.60;94.70
36660;DHT22;22654;51.054;3.654;2022-08-01T10:25:57;27.90;94.80
36660;DHT22;22654;51.054;3.654;2022-08-01T10:28:25;28.40;93.90
36660;DHT22;22654;51.054;3.654;2022-08-01T10:30:51;28.50;93.40
36660;DHT22;22654;51.054;3.654;2022-08-01T10:33:21;28.30;92.80
36660;DHT22;22654;51.054;3.654;2022-08-01T10:35:48;28.40;93.30
36660;DHT22;22654;51.054;3.654;2022-08-01T10:38:14;28.50;92.90
36660;DHT22;22654;51.054;3.654;2022-08-01T10:40:42;28.40;92.90
36660;DHT22;22654;51.054;3.654;2022-08-01T10:43:10;28.00;93.40
36660;DHT22;22654;51.054;3.654;2022-08-01T10:45:36;27.80;93.40
36660;DHT22;22654;51.054;3.654;2022-08-01T10:48:22;28.00;93.70
36660;DHT22;22654;51.054;3.654;2022-08-01T10:50:52;28.20;93.80
36660;DHT22;22654;51.054;3.654;2022-08-01T10:53:23;28.40;93.70
36660;DHT22;22654;51.054;3.654;2022-08-01T10:58:27;29.10;92.60
36660;DHT22;22654;51.054;3.654;2022-08-01T11:01:18;28.50;92.50
36660;DHT22;22654;51.054;3.654;2022-08-01T11:09:49;28.00;92.30
36660;DHT22;22654;51.054;3.654;2022-08-01T11:12:09;27.70;92.60
36660;DHT22;22654;51.054;3.654;2022-08-01T11:17:45;27.30;93.20
36660;DHT22;22654;51.054;3.654;2022-08-01T11:20:26;27.50;93.30
36660;DHT22;22654;51.054;3.654;2022-08-01T11:30:48;28.30;92.20
36660;DHT22;22654;51.054;3.654;2022-08-01T11:33:14;28.50;92.20
36660;DHT22;22654;51.054;3.654;2022-08-01T11:41:32;28.40;91.90
36660;DHT22;22654;51.054;3.654;2022-08-01T11:44:11;28.00;91.60
36660;DHT22;22654;51.054;3.654;2022-08-01T11:52:05;29.80;90.60
36660;DHT22;22654;51.054;3.654;2022-08-01T11:54:33;30.70;90.20
36660;DHT22;22654;51.054;3.654;2022-08-01T11:57:18;31.00;89.20
36660;DHT22;22654;51.054;3.654;2022-08-01T11:59:46;30.60;88.50
36660;DHT22;22654;51.054;3.654;2022-08-01T12:02:28;30.10;89.10
36660;DHT22;22654;51.054;3.654;2022-08-01T12:05:00;29.60;88.70
36660;DHT22;22654;51.054;3.654;2022-08-01T12:07:30;29.40;87.80
36660;DHT22;22654;51.054;3.654;2022-08-01T12:12:23;29.50;89.20
36660;DHT22;22654;51.054;3.654;2022-08-01T12:14:57;29.80;88.90
36660;DHT22;22654;51.054;3.654;2022-08-01T12:20:00;29.80;87.60
36660;DHT22;22654;51.054;3.654;2022-08-01T12:22:26;29.80;87.80
36660;DHT22;22654;51.054;3.654;2022-08-01T12:24:53;30.10;86.20
36660;DHT22;22654;51.054;3.654;2022-08-01T12:27:26;30.20;87.20
36660;DHT22;22654;51.054;3.654;2022-08-01T12:29:53;30.20;87.20
36660;DHT22;22654;51.054;3.654;2022-08-01T12:32:33;30.20;87.80
36660;DHT22;22654;51.054;3.654;2022-08-01T12:35:12;29.80;87.30
36660;DHT22;22654;51.054;3.654;2022-08-01T12:37:49;29.30;88.80
36660;DHT22;22654;51.054;3.654;2022-08-01T12:40:21;29.20;86.80
36660;DHT22;22654;51.054;3.654;2022-08-01T12:42:50;29.20;87.50
36660;DHT22;22654;51.054;3.654;2022-08-01T12:45:18;29.20;87.00
36660;DHT22;22654;51.054;3.654;2022-08-01T12:47:46;28.60;88.10
36660;DHT22;22654;51.054;3.654;2022-08-01T12:50:15;28.50;88.70
36660;DHT22;22654;51.054;3.654;2022-08-01T12:52:42;28.60;88.40
36660;DHT22;22654;51.054;3.654;2022-08-01T12:55:16;28.50;88.30
36660;DHT22;22654;51.054;3.654;2022-08-01T12:57:49;28.30;88.40
36660;DHT22;22654;51.054;3.654;2022-08-01T13:00:22;28.20;88.10
36660;DHT22;22654;51.054;3.654;2022-08-01T13:02:50;28.40;89.30
36660;DHT22;22654;51.054;3.654;2022-08-01T13:05:16;28.80;87.20
36660;DHT22;22654;51.054;3.654;2022-08-01T13:07:49;29.30;86.60
36660;DHT22;22654;51.054;3.654;2022-08-01T13:10:28;29.80;87.00
36660;DHT22;22654;51.054;3.654;2022-08-01T13:12:57;30.30;84.80
36660;DHT22;22654;51.054;3.654;2022-08-01T13:15:32;30.20;83.50
36660;DHT22;22654;51.054;3.654;2022-08-01T13:18:01;29.90;83.90
36660;DHT22;22654;51.054;3.654;2022-08-01T13:20:33;29.00;85.20
36660;DHT22;22654;51.054;3.654;2022-08-01T13:23:17;28.70;86.50
36660;DHT22;22654;51.054;3.654;2022-08-01T13:25:55;28.90;85.10
36660;DHT22;22654;51.054;3.654;2022-08-01T13:28:26;28.90;84.40
36660;DHT22;22654;51.054;3.654;2022-08-01T13:31:00;28.80;83.70
36660;DHT22;22654;51.054;3.654;2022-08-01T13:33:28;28.50;84.50
36660;DHT22;22654;51.054;3.654;2022-08-01T13:35:56;28.60;85.40
36660;DHT22;22654;51.054;3.654;2022-08-01T13:38:22;29.00;85.40
36660;DHT22;22654;51.054;3.654;2022-08-01T13:41:07;29.20;83.80
36660;DHT22;22654;51.054;3.654;2022-08-01T13:43:33;29.10;81.40
36660;DHT22;22654;51.054;3.654;2022-08-01T13:46:01;28.90;80.00
36660;DHT22;22654;51.054;3.654;2022-08-01T13:48:30;29.00;79.90
36660;DHT22;22654;51.054;3.654;2022-08-01T13:50:56;29.10;82.00
36660;DHT22;22654;51.054;3.654;2022-08-01T13:53:22;29.00;82.80
36660;DHT22;22654;51.054;3.654;2022-08-01T13:55:48;28.70;82.50
36660;DHT22;22654;51.054;3.654;2022-08-01T13:58:14;28.50;83.30
36660;DHT22;22654;51.054;3.654;2022-08-01T14:00:41;29.00;82.20
36660;DHT22;22654;51.054;3.654;2022-08-01T14:03:07;29.40;81.10
36660;DHT22;22654;51.054;3.654;2022-08-01T14:05:35;29.80;80.80
36660;DHT22;22654;51.054;3.654;2022-08-01T14:08:02;29.90;82.00
36660;DHT22;22654;51.054;3.654;2022-08-01T14:10:28;29.90;81.60
36660;DHT22;22654;51.054;3.654;2022-08-01T14:12:55;29.90;81.30
36660;DHT22;22654;51.054;3.654;2022-08-01T14:15:21;29.60;80.30
36660;DHT22;22654;51.054;3.654;2022-08-01T14:17:47;29.50;81.30
36660;DHT22;22654;51.054;3.654;2022-08-01T14:20:13;29.40;80.20
36660;DHT22;22654;51.054;3.654;2022-08-01T14:22:39;29.40;80.70
36660;DHT22;22654;51.054;3.654;2022-08-01T14:25:06;29.90;81.90
36660;DHT22;22654;51.054;3.654;2022-08-01T14:27:33;29.90;80.60
36660;DHT22;22654;51.054;3.654;2022-08-01T14:30:05;29.60;80.40
36660;DHT22;22654;51.054;3.654;2022-08-01T14:32:31;28.80;80.60
36660;DHT22;22654;51.054;3.654;2022-08-01T14:34:59;28.60;82.80
36660;DHT22;22654;51.054;3.654;2022-08-01T14:37:25;29.00;81.40
36660;DHT22;22654;51.054;3.654;2022-08-01T14:39:51;29.30;80.00
36660;DHT22;22654;51.054;3.654;2022-08-01T14:42:17;29.60;79.50
36660;DHT22;22654;51.054;3.654;2022-08-01T14:44:43;30.30;79.80
36660;DHT22;22654;51.054;3.654;2022-08-01T14:47:09;30.40;78.20
36660;DHT22;22654;51.054;3.654;2022-08-01T14:49:35;29.40;79.80
36660;DHT22;22654;51.054;3.654;2022-08-01T14:52:01;28.60;81.10
36660;DHT22;22654;51.054;3.654;2022-08-01T14:54:26;28.10;82.20
36660;DHT22;22654;51.054;3.654;2022-08-01T14:56:52;27.50;82.70
36660;DHT22;22654;51.054;3.654;2022-08-01T14:59:19;27.60;83.50
36660;DHT22;22654;51.054;3.654;2022-08-01T15:01:45;27.80;82.60
36660;DHT22;22654;51.054;3.654;2022-08-01T15:04:11;27.70;82.00
36660;DHT22;22654;51.054;3.654;2022-08-01T15:06:37;27.80;82.50
36660;DHT22;22654;51.054;3.654;2022-08-01T15:09:03;28.40;80.90
36660;DHT22;22654;51.054;3.654;2022-08-01T15:11:29;28.70;80.30
36660;DHT22;22654;51.054;3.654;2022-08-01T15:13:54;29.40;79.80
36660;DHT22;22654;51.054;3.654;2022-08-01T15:16:39;29.50;78.50
36660;DHT22;22654;51.054;3.654;2022-08-01T15:19:05;29.30;77.60
36660;DHT22;22654;51.054;3.654;2022-08-01T15:21:30;29.90;77.40
36660;DHT22;22654;51.054;3.654;2022-08-01T15:23:56;29.60;76.80
36660;DHT22;22654;51.054;3.654;2022-08-01T15:26:22;29.30;77.00
36660;DHT22;22654;51.054;3.654;2022-08-01T15:28:48;29.40;77.70
36660;DHT22;22654;51.054;3.654;2022-08-01T15:31:14;30.40;75.40
36660;DHT22;22654;51.054;3.654;2022-08-01T15:33:39;30.90;74.80
36660;DHT22;22654;51.054;3.654;2022-08-01T15:36:05;30.60;75.00
36660;DHT22;22654;51.054;3.654;2022-08-01T15:38:31;30.20;75.60
36660;DHT22;22654;51.054;3.654;2022-08-01T15:40:57;30.30;74.90
36660;DHT22;22654;51.054;3.654;2022-08-01T15:43:23;31.60;74.30
36660;DHT22;22654;51.054;3.654;2022-08-01T15:45:48;31.80;73.50
36660;DHT22;22654;51.054;3.654;2022-08-01T15:48:17;32.30;72.50
36660;DHT22;22654;51.054;3.654;2022-08-01T15:50:43;32.30;73.00
36660;DHT22;22654;51.054;3.654;2022-08-01T15:53:09;31.80;72.90
36660;DHT22;22654;51.054;3.654;2022-08-01T15:55:36;31.30;73.70
36660;DHT22;22654;51.054;3.654;2022-08-01T15:58:05;31.30;74.10
36660;DHT22;22654;51.054;3.654;2022-08-01T16:00:31;31.10;73.90
36660;DHT22;22654;51.054;3.654;2022-08-01T16:02:56;30.60;74.20
36660;DHT22;22654;51.054;3.654;2022-08-01T16:05:22;30.60;74.50
36660;DHT22;22654;51.054;3.654;2022-08-01T16:07:48;31.30;73.40
36660;DHT22;22654;51.054;3.654;2022-08-01T16:10:14;30.90;73.50
36660;DHT22;22654;51.054;3.654;2022-08-01T16:12:40;31.20;73.70
36660;DHT22;22654;51.054;3.654;2022-08-01T16:15:06;31.30;73.10
36660;DHT22;22654;51.054;3.654;2022-08-01T16:17:32;31.60;72.30
36660;DHT22;22654;51.054;3.654;2022-08-01T16:19:58;32.00;73.80
36660;DHT22;22654;51.054;3.654;2022-08-01T16:22:24;33.20;71.50
36660;DHT22;22654;51.054;3.654;2022-08-01T16:24:50;33.80;69.80
36660;DHT22;22654;51.054;3.654;2022-08-01T16:27:16;33.40;70.30
36660;DHT22;22654;51.054;3.654;2022-08-01T16:29:42;33.20;70.70
36660;DHT22;22654;51.054;3.654;2022-08-01T16:32:08;33.40;70.40
36660;DHT22;22654;51.054;3.654;2022-08-01T16:34:34;33.20;69.50
36660;DHT22;22654;51.054;3.654;2022-08-01T16:37:00;32.70;70.60
36660;DHT22;22654;51.054;3.654;2022-08-01T16:39:26;32.70;71.00